Time;durP1;ratioP1;P1;durP2;ratioP2;P2;SDS_P1;SDS_P2;PMS_P1;PMS_P2;Temp;Humidity;BMP_temperature;BMP_pressure;BME280_temperature;BME280_humidity;BME280_pressure;Samples;Min_cycle;Max_cycle;Signal;HPM_P1;HPM_P2
2023/06/21 00:01:02;;;;;;;11.77;5.28;;;;;;;;;;5020207;28;20139;-75
2023/06/21 00:03:27;;;;;;;13.95;5.78;;;;;;;;;;5020696;28;20057;-72
2023/06/21 00:05:53;;;;;;;11.50;5.07;;;;;;;;;;5020203;28;20398;-76
2023/06/21 00:08:18;;;;;;;12.57;4.85;;;;;;;;;;5020375;28;20037;-73
2023/06/21 00:10:44;;;;;;;13.75;4.38;;;;;;;;;;5018560;28;20049;-76
2023/06/21 00:13:10;;;;;;;10.50;4.80;;;;;;;;;;5020682;28;20091;-74
2023/06/21 00:15:38;;;;;;;10.82;5.00;;;;;;;;;;5019867;28;20057;-72
2023/06/21 00:18:04;;;;;;;14.60;4.85;;;;;;;;;;5020114;28;20040;-73
2023/06/21 00:20:29;;;;;;;15.13;4.75;;;;;;;;;;5019865;28;20041;-72
2023/06/21 00:22:57;;;;;;;14.73;5.00;;;;;;;;;;5019307;28;20133;-75
2023/06/21 00:25:23;;;;;;;14.70;5.00;;;;;;;;;;5019395;28;20072;-75
2023/06/21 00:27:50;;;;;;;13.05;5.10;;;;;;;;;;5020039;28;20049;-73
2023/06/21 00:30:16;;;;;;;13.45;5.15;;;;;;;;;;5018695;28;20046;-73
2023/06/21 00:32:41;;;;;;;13.43;5.00;;;;;;;;;;5017857;28;20136;-76
2023/06/21 00:35:07;;;;;;;13.13;5.28;;;;;;;;;;5001728;28;20056;-73
2023/06/21 00:37:34;;;;;;;14.68;5.32;;;;;;;;;;5020221;28;20041;-71
2023/06/21 00:39:59;;;;;;;12.00;4.78;;;;;;;;;;5010271;28;20053;-73
2023/06/21 00:42:25;;;;;;;16.83;4.90;;;;;;;;;;5034461;28;20055;-72
2023/06/21 00:44:50;;;;;;;12.25;5.18;;;;;;;;;;5002799;28;20053;-72
2023/06/21 00:47:18;;;;;;;15.50;5.10;;;;;;;;;;5024214;28;20107;-71
2023/06/21 00:49:43;;;;;;;18.55;5.43;;;;;;;;;;5023823;28;20081;-72
2023/06/21 00:52:09;;;;;;;13.27;5.10;;;;;;;;;;5023758;28;20049;-71
2023/06/21 00:54:35;;;;;;;10.90;5.30;;;;;;;;;;5038255;28;20142;-74
2023/06/21 00:57:03;;;;;;;12.52;5.18;;;;;;;;;;5021580;28;20552;-71
2023/06/21 00:59:29;;;;;;;13.43;4.75;;;;;;;;;;5022027;28;20053;-74
2023/06/21 01:01:55;;;;;;;11.23;4.53;;;;;;;;;;5023659;28;20099;-72
2023/06/21 01:04:32;;;;;;;12.20;5.22;;;;;;;;;;5022850;28;20041;-71
2023/06/21 01:07:09;;;;;;;14.05;5.22;;;;;;;;;;5021878;28;20940;-74
2023/06/21 01:09:56;;;;;;;15.00;5.20;;;;;;;;;;5023208;28;20053;-74
2023/06/21 01:12:36;;;;;;;14.27;5.72;;;;;;;;;;5021002;28;20090;-72
2023/06/21 01:15:07;;;;;;;11.80;5.05;;;;;;;;;;5021321;28;20045;-71
2023/06/21 01:17:35;;;;;;;12.32;4.97;;;;;;;;;;5004047;28;20131;-72
2023/06/21 01:20:05;;;;;;;11.13;5.57;;;;;;;;;;5021549;28;20057;-70
2023/06/21 01:22:59;;;;;;;12.90;5.18;;;;;;;;;;5020033;28;20053;-71
2023/06/21 01:25:53;;;;;;;17.27;5.30;;;;;;;;;;5035093;28;20128;-71
2023/06/21 01:28:47;;;;;;;16.08;5.55;;;;;;;;;;5017617;28;20491;-71
2023/06/21 01:31:15;;;;;;;14.27;5.60;;;;;;;;;;5022334;28;20037;-71
2023/06/21 01:33:41;;;;;;;18.95;5.72;;;;;;;;;;5022120;28;20052;-70
2023/06/21 01:36:08;;;;;;;10.75;5.18;;;;;;;;;;5021844;28;20810;-71
2023/06/21 01:38:34;;;;;;;13.48;5.45;;;;;;;;;;5021059;28;20141;-70
2023/06/21 01:40:59;;;;;;;11.25;5.63;;;;;;;;;;5020937;28;20132;-69
2023/06/21 01:43:25;;;;;;;9.85;5.55;;;;;;;;;;5022686;28;20049;-68
2023/06/21 01:45:52;;;;;;;12.13;5.57;;;;;;;;;;5021898;28;20647;-69
2023/06/21 01:48:18;;;;;;;10.43;5.28;;;;;;;;;;5026688;28;20072;-69
2023/06/21 01:50:44;;;;;;;11.68;5.97;;;;;;;;;;5020593;28;20067;-70
2023/06/21 01:53:13;;;;;;;14.85;5.97;;;;;;;;;;5022716;28;20053;-69
2023/06/21 01:55:41;;;;;;;13.57;7.40;;;;;;;;;;5021239;28;20057;-69
2023/06/21 01:58:06;;;;;;;10.30;6.15;;;;;;;;;;5019364;28;20494;-69
2023/06/21 02:00:32;;;;;;;11.65;6.57;;;;;;;;;;5016988;28;20045;-70
2023/06/21 02:03:06;;;;;;;13.98;7.20;;;;;;;;;;5020076;28;20592;-71
2023/06/21 02:05:33;;;;;;;17.35;6.88;;;;;;;;;;5022752;28;20147;-69
2023/06/21 02:08:00;;;;;;;21.92;7.53;;;;;;;;;;5019796;28;20069;-69
2023/06/21 02:10:26;;;;;;;15.80;7.05;;;;;;;;;;5021001;28;20715;-70
2023/06/21 02:12:52;;;;;;;13.30;7.13;;;;;;;;;;5036619;28;20060;-70
2023/06/21 02:15:18;;;;;;;18.90;7.65;;;;;;;;;;5022103;28;20057;-70
2023/06/21 02:17:48;;;;;;;12.98;7.68;;;;;;;;;;5020248;28;20037;-70
2023/06/21 02:20:15;;;;;;;15.93;7.93;;;;;;;;;;5020180;28;20410;-69
2023/06/21 02:22:41;;;;;;;12.30;8.35;;;;;;;;;;5020248;28;20061;-69
2023/06/21 02:25:09;;;;;;;15.88;7.88;;;;;;;;;;5036915;28;20111;-69
2023/06/21 02:27:35;;;;;;;15.55;7.90;;;;;;;;;;5004397;28;20049;-69
2023/06/21 02:30:00;;;;;;;11.88;7.80;;;;;;;;;;4991944;28;20045;-70
2023/06/21 02:32:26;;;;;;;16.35;8.05;;;;;;;;;;5036903;28;20056;-71
2023/06/21 02:34:51;;;;;;;13.52;7.93;;;;;;;;;;5021316;28;21047;-69
2023/06/21 02:37:17;;;;;;;16.08;7.50;;;;;;;;;;5037129;28;20045;-69
2023/06/21 02:39:42;;;;;;;13.60;7.85;;;;;;;;;;5036796;28;20060;-69
2023/06/21 02:42:09;;;;;;;16.20;8.07;;;;;;;;;;5036239;28;20041;-70
2023/06/21 02:44:35;;;;;;;12.65;7.85;;;;;;;;;;5037069;28;20050;-68
2023/06/21 02:47:01;;;;;;;11.52;7.63;;;;;;;;;;5021169;28;20410;-69
2023/06/21 02:49:26;;;;;;;14.15;7.70;;;;;;;;;;5020283;28;20144;-69
2023/06/21 02:51:52;;;;;;;15.35;7.35;;;;;;;;;;5019224;28;20068;-69
2023/06/21 02:54:18;;;;;;;16.10;7.88;;;;;;;;;;5020325;28;20045;-70
2023/06/21 02:56:44;;;;;;;14.27;8.13;;;;;;;;;;5019077;28;20080;-69
2023/06/21 02:59:10;;;;;;;11.80;7.47;;;;;;;;;;5036644;28;20145;-70
2023/06/21 03:01:36;;;;;;;18.63;8.20;;;;;;;;;;5020152;28;20056;-69
2023/06/21 03:04:01;;;;;;;16.20;8.25;;;;;;;;;;5020739;28;20037;-70
2023/06/21 03:06:29;;;;;;;20.75;8.50;;;;;;;;;;5026174;28;20478;-69
2023/06/21 03:08:58;;;;;;;19.00;9.85;;;;;;;;;;5018566;28;20581;-70
2023/06/21 03:11:23;;;;;;;16.08;9.65;;;;;;;;;;5019628;28;20045;-70
2023/06/21 03:13:49;;;;;;;20.73;7.05;;;;;;;;;;5018732;28;20123;-71
2023/06/21 03:16:16;;;;;;;11.40;7.80;;;;;;;;;;5019972;28;20244;-69
2023/06/21 03:18:42;;;;;;;11.45;6.60;;;;;;;;;;5020631;28;20088;-71
2023/06/21 03:21:08;;;;;;;16.23;7.53;;;;;;;;;;5035729;28;20053;-70
2023/06/21 03:23:35;;;;;;;9.98;6.43;;;;;;;;;;5019163;28;20052;-69
2023/06/21 03:26:01;;;;;;;13.00;7.40;;;;;;;;;;5017706;28;20056;-70
2023/06/21 03:28:27;;;;;;;11.75;7.25;;;;;;;;;;5017572;28;20053;-70
2023/06/21 03:30:53;;;;;;;13.00;7.18;;;;;;;;;;5019695;28;20041;-70
2023/06/21 03:33:19;;;;;;;12.63;7.40;;;;;;;;;;5018567;28;20045;-70
2023/06/21 03:35:45;;;;;;;10.55;6.60;;;;;;;;;;5019505;28;20432;-69
2023/06/21 03:38:10;;;;;;;14.75;7.22;;;;;;;;;;5018109;28;20171;-69
2023/06/21 03:40:40;;;;;;;16.77;6.70;;;;;;;;;;5035070;28;20245;-69
2023/06/21 03:43:05;;;;;;;10.00;6.80;;;;;;;;;;5018131;28;20574;-70
2023/06/21 03:45:31;;;;;;;16.10;8.07;;;;;;;;;;5020485;28;20042;-72
2023/06/21 03:48:02;;;;;;;20.20;7.45;;;;;;;;;;5034109;28;20075;-71
2023/06/21 03:50:30;;;;;;;12.60;8.25;;;;;;;;;;5018328;28;20049;-70
2023/06/21 03:52:55;;;;;;;13.50;8.13;;;;;;;;;;5034550;28;20050;-71
2023/06/21 03:55:21;;;;;;;15.30;8.45;;;;;;;;;;5036001;28;20148;-72
2023/06/21 03:57:47;;;;;;;12.93;8.27;;;;;;;;;;5034268;28;20685;-70
2023/06/21 04:00:14;;;;;;;14.02;8.32;;;;;;;;;;5002400;28;20502;-72
2023/06/21 04:02:48;;;;;;;13.60;7.53;;;;;;;;;;5018097;28;20107;-71
2023/06/21 04:05:13;;;;;;;16.60;8.18;;;;;;;;;;5018580;28;20061;-71
2023/06/21 04:07:39;;;;;;;15.77;7.72;;;;;;;;;;5019356;28;20060;-71
2023/06/21 04:10:05;;;;;;;14.05;7.57;;;;;;;;;;5020416;28;20115;-73
2023/06/21 04:12:31;;;;;;;12.65;7.55;;;;;;;;;;5022156;28;20045;-70
2023/06/21 04:15:00;;;;;;;12.85;7.38;;;;;;;;;;5020989;28;20045;-71
2023/06/21 04:17:26;;;;;;;13.50;7.90;;;;;;;;;;5019533;28;21069;-72
2023/06/21 04:19:51;;;;;;;13.90;7.75;;;;;;;;;;5025108;28;20081;-71
2023/06/21 04:22:17;;;;;;;12.63;8.15;;;;;;;;;;5034995;28;20065;-73
2023/06/21 04:24:42;;;;;;;14.10;8.32;;;;;;;;;;5025763;28;20136;-72
2023/06/21 04:27:07;;;;;;;16.35;8.00;;;;;;;;;;5035120;28;20045;-70
2023/06/21 04:29:36;;;;;;;14.98;7.95;;;;;;;;;;5028046;28;20050;-73
2023/06/21 04:32:03;;;;;;;14.40;7.78;;;;;;;;;;5020230;28;20128;-71
2023/06/21 04:34:28;;;;;;;17.02;7.63;;;;;;;;;;5025023;28;21175;-71
2023/06/21 04:36:54;;;;;;;18.60;7.85;;;;;;;;;;5019530;28;20044;-70
2023/06/21 04:39:21;;;;;;;15.05;7.30;;;;;;;;;;5017410;28;20050;-71
2023/06/21 04:41:46;;;;;;;17.70;7.90;;;;;;;;;;5018399;28;20048;-70
2023/06/21 04:44:17;;;;;;;16.30;8.13;;;;;;;;;;5034827;28;20065;-70
2023/06/21 04:46:44;;;;;;;14.90;7.57;;;;;;;;;;5018362;28;20116;-71
2023/06/21 04:49:09;;;;;;;15.57;6.90;;;;;;;;;;5017745;28;20991;-71
2023/06/21 04:51:35;;;;;;;12.25;7.53;;;;;;;;;;5017966;28;20045;-76
2023/06/21 04:54:00;;;;;;;10.98;6.88;;;;;;;;;;5016899;28;20029;-72
2023/06/21 04:56:27;;;;;;;19.85;8.25;;;;;;;;;;5018866;28;20159;-71
2023/06/21 04:58:52;;;;;;;21.30;7.32;;;;;;;;;;5015318;28;20539;-72
2023/06/21 05:01:17;;;;;;;15.13;7.32;;;;;;;;;;5019002;28;21150;-70
2023/06/21 05:03:47;;;;;;;22.83;7.40;;;;;;;;;;5015504;28;20065;-69
2023/06/21 05:06:14;;;;;;;15.20;7.63;;;;;;;;;;5018777;28;20056;-70
2023/06/21 05:08:40;;;;;;;15.48;7.00;;;;;;;;;;5017373;28;20037;-68
2023/06/21 05:11:06;;;;;;;12.55;7.45;;;;;;;;;;5017701;28;20136;-73
2023/06/21 05:13:32;;;;;;;15.50;7.40;;;;;;;;;;5017082;28;20053;-70
2023/06/21 05:15:58;;;;;;;14.40;7.15;;;;;;;;;;5017782;28;20049;-71
2023/06/21 05:18:23;;;;;;;13.52;6.78;;;;;;;;;;5018997;28;20041;-73
2023/06/21 05:20:48;;;;;;;12.10;7.40;;;;;;;;;;5018235;28;20084;-72
2023/06/21 05:23:14;;;;;;;14.25;6.63;;;;;;;;;;5018961;28;20045;-73
2023/06/21 05:25:39;;;;;;;15.05;7.13;;;;;;;;;;5016761;28;20159;-70
2023/06/21 05:28:05;;;;;;;17.65;6.50;;;;;;;;;;5018759;28;21156;-72
2023/06/21 05:30:30;;;;;;;10.80;6.80;;;;;;;;;;5018911;28;20128;-70
2023/06/21 05:32:56;;;;;;;18.10;7.22;;;;;;;;;;5022224;28;20037;-71
2023/06/21 05:35:21;;;;;;;16.50;6.68;;;;;;;;;;5021356;28;20045;-71
2023/06/21 05:37:47;;;;;;;16.08;6.55;;;;;;;;;;5020674;28;20056;-73
2023/06/21 05:40:12;;;;;;;12.55;6.45;;;;;;;;;;5022705;28;20069;-71
2023/06/21 05:42:38;;;;;;;14.00;7.15;;;;;;;;;;5021790;28;20060;-76
2023/06/21 05:45:05;;;;;;;13.65;6.55;;;;;;;;;;5022359;28;20096;-70
2023/06/21 05:47:31;;;;;;;9.50;6.38;;;;;;;;;;5021942;28;20053;-70
2023/06/21 05:49:56;;;;;;;9.48;5.78;;;;;;;;;;5021118;28;20057;-71
2023/06/21 05:52:22;;;;;;;12.70;6.47;;;;;;;;;;5022687;28;20063;-73
2023/06/21 05:54:47;;;;;;;14.75;6.25;;;;;;;;;;5021684;28;20081;-71
2023/06/21 05:57:12;;;;;;;13.43;6.28;;;;;;;;;;5022744;28;20041;-72
2023/06/21 05:59:38;;;;;;;13.50;6.30;;;;;;;;;;5022180;28;20478;-73
2023/06/21 06:02:05;;;;;;;8.40;5.68;;;;;;;;;;5022793;28;20044;-69
2023/06/21 06:04:31;;;;;;;11.40;6.43;;;;;;;;;;5022414;28;20506;-71
2023/06/21 06:06:56;;;;;;;12.60;5.90;;;;;;;;;;5024201;28;20049;-70
2023/06/21 06:09:22;;;;;;;9.93;5.45;;;;;;;;;;5021521;28;20045;-68
2023/06/21 06:11:49;;;;;;;15.77;5.18;;;;;;;;;;5022139;28;20053;-68
2023/06/21 06:14:15;;;;;;;15.88;4.68;;;;;;;;;;5022357;28;20037;-70
2023/06/21 06:16:40;;;;;;;16.90;4.57;;;;;;;;;;5022130;28;20049;-69
2023/06/21 06:19:06;;;;;;;8.63;4.30;;;;;;;;;;5021546;28;20068;-71
2023/06/21 06:21:31;;;;;;;9.30;4.05;;;;;;;;;;5020254;28;20050;-71
2023/06/21 06:23:57;;;;;;;12.18;5.18;;;;;;;;;;5021804;28;20144;-70
2023/06/21 06:26:24;;;;;;;11.00;4.50;;;;;;;;;;5037648;28;20099;-71
2023/06/21 06:28:51;;;;;;;11.65;4.50;;;;;;;;;;5021320;28;20049;-71
2023/06/21 06:31:24;;;;;;;9.80;4.45;;;;;;;;;;5020850;28;20049;-69
2023/06/21 06:33:50;;;;;;;12.95;4.60;;;;;;;;;;5022152;28;20041;-70
2023/06/21 06:36:16;;;;;;;9.85;3.97;;;;;;;;;;5021922;28;20095;-70
2023/06/21 06:38:41;;;;;;;9.52;3.70;;;;;;;;;;5021718;28;20081;-71
2023/06/21 06:41:07;;;;;;;9.93;3.85;;;;;;;;;;5021327;28;20358;-71
2023/06/21 06:43:33;;;;;;;7.72;3.95;;;;;;;;;;5020143;28;20410;-72
2023/06/21 06:45:59;;;;;;;10.88;4.05;;;;;;;;;;5021937;28;20038;-70
2023/06/21 06:48:26;;;;;;;13.93;4.10;;;;;;;;;;5021455;28;20468;-70
2023/06/21 06:50:51;;;;;;;16.33;4.65;;;;;;;;;;5021216;28;20042;-71
2023/06/21 06:53:17;;;;;;;13.43;4.20;;;;;;;;;;5035796;28;20048;-71
2023/06/21 06:55:42;;;;;;;12.05;4.20;;;;;;;;;;5021698;28;21013;-72
2023/06/21 06:58:08;;;;;;;8.15;4.30;;;;;;;;;;5021379;28;20071;-70
2023/06/21 07:00:33;;;;;;;16.83;4.80;;;;;;;;;;5020277;28;20110;-72
2023/06/21 07:02:58;;;;;;;10.70;4.97;;;;;;;;;;5036174;28;20041;-71
2023/06/21 07:05:25;;;;;;;9.38;4.65;;;;;;;;;;5020848;28;20075;-70
2023/06/21 07:07:52;;;;;;;12.00;5.32;;;;;;;;;;5020921;28;20073;-72
2023/06/21 07:10:18;;;;;;;7.60;4.20;;;;;;;;;;5021373;28;20434;-71
2023/06/21 07:12:44;;;;;;;7.35;4.10;;;;;;;;;;5021475;28;20869;-71
2023/06/21 07:15:10;;;;;;;12.45;4.30;;;;;;;;;;5019916;28;20049;-70
2023/06/21 07:17:35;;;;;;;13.88;4.10;;;;;;;;;;5021272;28;20111;-69
2023/06/21 07:20:01;;;;;;;7.45;3.92;;;;;;;;;;5021108;28;20050;-70
2023/06/21 07:22:26;;;;;;;8.55;4.05;;;;;;;;;;5021294;28;20049;-70
2023/06/21 07:24:52;;;;;;;14.98;4.00;;;;;;;;;;5020568;28;20063;-71
2023/06/21 07:27:17;;;;;;;13.93;3.55;;;;;;;;;;5020070;28;20057;-71
2023/06/21 07:29:43;;;;;;;10.02;3.72;;;;;;;;;;5020993;28;20068;-70
2023/06/21 07:32:09;;;;;;;9.68;4.00;;;;;;;;;;5021092;28;20073;-69
2023/06/21 07:34:34;;;;;;;12.07;3.92;;;;;;;;;;5021120;28;20041;-71
2023/06/21 07:37:00;;;;;;;11.32;3.90;;;;;;;;;;5019992;28;20083;-71
2023/06/21 07:39:25;;;;;;;10.77;3.90;;;;;;;;;;5020250;28;20144;-71
2023/06/21 07:41:51;;;;;;;13.77;3.95;;;;;;;;;;5020664;28;20056;-71
2023/06/21 07:44:17;;;;;;;13.05;3.60;;;;;;;;;;5021411;28;20151;-71
2023/06/21 07:46:43;;;;;;;6.30;3.10;;;;;;;;;;5035922;28;20877;-70
2023/06/21 07:49:09;;;;;;;9.60;3.97;;;;;;;;;;5018115;28;20048;-71
2023/06/21 07:51:34;;;;;;;11.35;3.78;;;;;;;;;;5020522;28;20522;-71
2023/06/21 07:54:00;;;;;;;7.95;3.95;;;;;;;;;;5020347;28;20077;-70
2023/06/21 07:56:25;;;;;;;9.40;4.18;;;;;;;;;;5020460;28;20037;-70
2023/06/21 07:58:50;;;;;;;11.30;3.92;;;;;;;;;;5019507;28;20060;-70
2023/06/21 08:01:16;;;;;;;18.13;4.18;;;;;;;;;;5019178;28;20060;-71
2023/06/21 08:03:41;;;;;;;10.05;3.85;;;;;;;;;;5020378;28;20049;-71
2023/06/21 08:06:07;;;;;;;10.98;3.70;;;;;;;;;;5020020;28;20061;-72
2023/06/21 08:08:32;;;;;;;8.32;4.07;;;;;;;;;;5020078;28;20045;-72
2023/06/21 08:10:58;;;;;;;10.38;3.90;;;;;;;;;;5018518;28;20038;-72
2023/06/21 08:13:23;;;;;;;12.90;3.97;;;;;;;;;;5019357;28;20423;-72
2023/06/21 08:15:51;;;;;;;9.52;3.92;;;;;;;;;;5020046;28;20045;-72
2023/06/21 08:18:16;;;;;;;10.05;3.95;;;;;;;;;;5020333;28;20057;-72
2023/06/21 08:20:42;;;;;;;10.00;4.13;;;;;;;;;;5020659;28;20045;-72
2023/06/21 08:23:07;;;;;;;9.05;4.15;;;;;;;;;;5019122;28;20049;-72
2023/06/21 08:25:34;;;;;;;15.50;4.20;;;;;;;;;;5020303;28;20057;-72
2023/06/21 08:27:59;;;;;;;8.65;4.28;;;;;;;;;;5019620;28;20042;-72
2023/06/21 08:30:24;;;;;;;10.20;4.43;;;;;;;;;;5018992;28;20060;-72
2023/06/21 08:32:50;;;;;;;9.00;4.55;;;;;;;;;;5018611;28;20048;-72
2023/06/21 08:35:16;;;;;;;11.10;4.63;;;;;;;;;;5018582;28;20053;-70
2023/06/21 08:37:56;;;;;;;11.73;4.88;;;;;;;;;;5020145;28;20114;-72
2023/06/21 08:40:31;;;;;;;8.68;4.32;;;;;;;;;;5020219;28;20056;-71
2023/06/21 08:42:57;;;;;;;8.82;4.07;;;;;;;;;;5019195;28;20994;-71
2023/06/21 08:45:22;;;;;;;8.98;4.88;;;;;;;;;;5018083;28;20115;-72
2023/06/21 08:47:49;;;;;;;10.52;4.10;;;;;;;;;;5019352;28;20054;-71
2023/06/21 08:50:17;;;;;;;10.73;4.85;;;;;;;;;;5020082;28;20084;-72
2023/06/21 08:52:45;;;;;;;7.93;3.58;;;;;;;;;;5019754;28;20503;-71
2023/06/21 08:55:13;;;;;;;12.52;4.25;;;;;;;;;;5018435;28;20041;-72
2023/06/21 08:57:46;;;;;;;9.73;4.22;;;;;;;;;;5019461;28;20135;-72
2023/06/21 09:00:16;;;;;;;7.15;3.90;;;;;;;;;;5019727;28;20060;-71
2023/06/21 09:03:04;;;;;;;11.95;4.35;;;;;;;;;;5019352;28;20045;-72
2023/06/21 09:05:49;;;;;;;8.73;4.43;;;;;;;;;;5010567;28;20462;-70
2023/06/21 09:08:15;;;;;;;9.13;4.40;;;;;;;;;;5023409;28;20045;-72
2023/06/21 09:10:42;;;;;;;11.88;4.15;;;;;;;;;;5022602;28;20071;-72
2023/06/21 09:13:09;;;;;;;11.80;5.03;;;;;;;;;;5023173;28;20057;-72
2023/06/21 09:15:36;;;;;;;12.20;4.78;;;;;;;;;;5023597;28;20128;-71
2023/06/21 09:18:02;;;;;;;14.32;4.00;;;;;;;;;;5022516;28;20067;-72
2023/06/21 09:20:29;;;;;;;10.60;4.97;;;;;;;;;;5023326;28;20060;-70
2023/06/21 09:22:58;;;;;;;12.95;4.93;;;;;;;;;;5023043;28;20132;-72
2023/06/21 09:25:24;;;;;;;14.35;5.03;;;;;;;;;;5023531;28;20140;-71
2023/06/21 09:27:50;;;;;;;9.88;5.13;;;;;;;;;;5020818;28;20049;-71
2023/06/21 09:30:16;;;;;;;8.27;4.45;;;;;;;;;;5023078;28;20054;-71
2023/06/21 09:32:42;;;;;;;9.75;4.25;;;;;;;;;;5021441;28;20041;-72
2023/06/21 09:35:08;;;;;;;16.08;5.32;;;;;;;;;;5022949;28;20402;-71
2023/06/21 09:37:36;;;;;;;9.43;4.70;;;;;;;;;;5023569;28;20049;-73
2023/06/21 09:40:05;;;;;;;9.40;4.32;;;;;;;;;;5023838;28;20045;-71
2023/06/21 09:42:36;;;;;;;15.25;4.90;;;;;;;;;;5023326;28;20061;-72
2023/06/21 09:45:01;;;;;;;8.00;4.78;;;;;;;;;;5021010;28;20041;-70
2023/06/21 09:47:30;;;;;;;9.98;4.53;;;;;;;;;;5023323;28;20060;-72
2023/06/21 09:49:57;;;;;;;7.40;4.40;;;;;;;;;;5022450;28;20183;-71
2023/06/21 09:52:22;;;;;;;11.25;4.30;;;;;;;;;;5022689;28;20421;-71
2023/06/21 09:54:48;;;;;;;7.85;4.50;;;;;;;;;;5022135;28;20659;-70
2023/06/21 09:57:14;;;;;;;8.32;4.50;;;;;;;;;;5022125;28;20056;-71
2023/06/21 09:59:40;;;;;;;8.30;4.20;;;;;;;;;;5022471;28;20466;-71
2023/06/21 10:02:07;;;;;;;11.73;4.75;;;;;;;;;;5021844;28;20045;-71
2023/06/21 10:04:44;;;;;;;11.50;4.50;;;;;;;;;;5022644;28;20050;-70
2023/06/21 10:07:14;;;;;;;13.90;4.15;;;;;;;;;;5023965;28;20041;-70
2023/06/21 10:09:41;;;;;;;11.75;4.38;;;;;;;;;;5023944;28;20045;-71
2023/06/21 10:12:11;;;;;;;9.82;4.50;;;;;;;;;;5036504;28;20053;-70
2023/06/21 10:14:38;;;;;;;10.05;4.28;;;;;;;;;;5023019;28;20463;-70
2023/06/21 10:17:04;;;;;;;8.45;4.00;;;;;;;;;;5020200;28;20045;-69
2023/06/21 10:19:29;;;;;;;10.85;4.80;;;;;;;;;;5021922;28;20406;-69
2023/06/21 10:22:16;;;;;;;9.68;4.47;;;;;;;;;;5020788;28;20053;-70
2023/06/21 10:24:50;;;;;;;11.45;5.63;;;;;;;;;;5012366;28;20103;-70
2023/06/21 10:27:20;;;;;;;11.20;5.60;;;;;;;;;;5022032;28;20127;-70
2023/06/21 10:29:54;;;;;;;31.05;5.53;;;;;;;;;;5022045;28;20053;-70
2023/06/21 10:32:21;;;;;;;13.05;4.68;;;;;;;;;;5012567;28;20050;-70
2023/06/21 10:35:01;;;;;;;13.20;4.70;;;;;;;;;;5021170;28;20448;-70
2023/06/21 10:37:38;;;;;;;16.58;5.13;;;;;;;;;;5035447;28;20140;-71
2023/06/21 10:40:06;;;;;;;10.63;4.78;;;;;;;;;;5021373;28;20076;-69
2023/06/21 10:42:32;;;;;;;11.30;4.90;;;;;;;;;;5021154;28;20052;-70
2023/06/21 10:44:59;;;;;;;11.15;5.03;;;;;;;;;;5019846;28;20037;-69
2023/06/21 10:47:25;;;;;;;10.82;4.90;;;;;;;;;;5021423;28;20144;-69
2023/06/21 10:49:53;;;;;;;13.23;4.75;;;;;;;;;;5021087;28;20046;-70
2023/06/21 10:52:20;;;;;;;11.40;4.85;;;;;;;;;;5021038;28;20049;-69
2023/06/21 10:54:47;;;;;;;8.73;4.63;;;;;;;;;;5021124;28;20065;-70
2023/06/21 10:57:14;;;;;;;7.78;4.20;;;;;;;;;;5019724;28;20459;-70
2023/06/21 10:59:40;;;;;;;9.93;4.45;;;;;;;;;;5019539;28;20509;-69
2023/06/21 11:02:07;;;;;;;10.25;3.95;;;;;;;;;;5021610;28;20041;-71
2023/06/21 11:05:11;;;;;;;9.32;4.65;;;;;;;;;;5021466;28;20050;-70
2023/06/21 11:07:37;;;;;;;10.75;4.57;;;;;;;;;;5032261;28;20564;-70
2023/06/21 11:10:06;;;;;;;9.38;4.40;;;;;;;;;;5020937;28;20041;-70
2023/06/21 11:12:34;;;;;;;9.15;4.60;;;;;;;;;;5020964;28;20147;-70
2023/06/21 11:15:00;;;;;;;8.60;4.00;;;;;;;;;;5020176;28;20038;-71
2023/06/21 11:17:25;;;;;;;12.43;4.60;;;;;;;;;;5020706;28;20045;-73
2023/06/21 11:19:51;;;;;;;11.45;4.65;;;;;;;;;;5019358;28;20042;-73
2023/06/21 11:22:17;;;;;;;10.60;4.63;;;;;;;;;;5021300;28;20046;-71
2023/06/21 11:25:16;;;;;;;10.60;4.95;;;;;;;;;;5024865;28;20049;-71
2023/06/21 11:27:43;;;;;;;10.18;4.88;;;;;;;;;;5010669;28;20055;-71
2023/06/21 11:30:10;;;;;;;10.63;4.95;;;;;;;;;;4992846;28;20136;-71
2023/06/21 11:32:37;;;;;;;6.63;4.45;;;;;;;;;;5020755;28;20048;-71
2023/06/21 11:35:08;;;;;;;16.88;4.57;;;;;;;;;;5002222;28;20037;-71
2023/06/21 11:37:47;;;;;;;13.50;4.30;;;;;;;;;;5019989;28;20203;-71
2023/06/21 11:40:15;;;;;;;19.27;3.97;;;;;;;;;;5019711;28;20183;-71
2023/06/21 11:42:45;;;;;;;19.23;4.07;;;;;;;;;;5020341;28;20045;-73
2023/06/21 11:45:25;;;;;;;14.00;3.90;;;;;;;;;;5018451;28;20061;-71
2023/06/21 11:48:23;;;;;;;13.88;3.80;;;;;;;;;;5020025;28;20994;-72
2023/06/21 11:50:50;;;;;;;18.20;4.55;;;;;;;;;;5012650;28;20048;-75
2023/06/21 11:53:28;;;;;;;23.00;4.25;;;;;;;;;;5019325;28;20049;-70
2023/06/21 11:55:56;;;;;;;22.20;4.82;;;;;;;;;;5020197;28;20831;-70
2023/06/21 11:58:23;;;;;;;12.32;3.63;;;;;;;;;;5019546;28;20099;-74
2023/06/21 12:00:49;;;;;;;15.82;3.72;;;;;;;;;;5019227;28;20045;-72
2023/06/21 12:03:16;;;;;;;14.60;4.03;;;;;;;;;;5018998;28;20435;-72
2023/06/21 12:05:42;;;;;;;18.15;4.13;;;;;;;;;;5019772;28;20079;-70
2023/06/21 12:08:07;;;;;;;18.95;3.70;;;;;;;;;;5011867;28;20052;-71
2023/06/21 12:10:34;;;;;;;16.77;3.85;;;;;;;;;;5017881;28;20033;-70
2023/06/21 12:13:06;;;;;;;9.57;3.20;;;;;;;;;;5015889;28;20056;-72
2023/06/21 12:15:32;;;;;;;13.52;3.97;;;;;;;;;;5016919;28;20060;-72
2023/06/21 12:17:58;;;;;;;14.20;3.80;;;;;;;;;;5018317;28;20049;-75
2023/06/21 12:20:24;;;;;;;17.55;4.10;;;;;;;;;;5016628;28;20041;-70
2023/06/21 12:22:49;;;;;;;17.00;4.00;;;;;;;;;;5015337;28;20041;-73
2023/06/21 12:25:15;;;;;;;13.63;3.90;;;;;;;;;;5016813;28;20499;-72
2023/06/21 12:27:56;;;;;;;16.17;4.00;;;;;;;;;;5018469;28;20045;-70
2023/06/21 12:30:25;;;;;;;11.98;3.60;;;;;;;;;;5007139;28;20087;-69
2023/06/21 12:32:51;;;;;;;17.83;3.83;;;;;;;;;;5017437;28;20136;-70
2023/06/21 12:35:18;;;;;;;18.30;3.65;;;;;;;;;;5017177;28;20502;-70
2023/06/21 12:37:46;;;;;;;14.65;3.63;;;;;;;;;;5017772;28;20049;-72
2023/06/21 12:40:16;;;;;;;12.25;3.83;;;;;;;;;;5019579;28;20109;-71
2023/06/21 12:42:45;;;;;;;10.50;3.75;;;;;;;;;;5024966;28;20045;-73
2023/06/21 12:45:12;;;;;;;19.85;3.72;;;;;;;;;;5021930;28;20143;-74
2023/06/21 12:47:41;;;;;;;15.80;3.70;;;;;;;;;;5024818;28;20430;-75
2023/06/21 12:50:06;;;;;;;15.70;3.80;;;;;;;;;;5024072;28;20465;-70
2023/06/21 12:52:32;;;;;;;18.48;3.60;;;;;;;;;;5024389;28;20786;-71
2023/06/21 12:54:58;;;;;;;15.57;3.95;;;;;;;;;;5029552;28;20044;-70
2023/06/21 12:57:31;;;;;;;14.23;3.70;;;;;;;;;;5040660;28;20048;-70
2023/06/21 12:59:57;;;;;;;20.33;4.10;;;;;;;;;;5041239;28;20485;-73
2023/06/21 13:02:26;;;;;;;12.32;3.85;;;;;;;;;;5041323;28;20037;-70
2023/06/21 13:04:54;;;;;;;15.05;4.05;;;;;;;;;;5041266;28;20095;-70
2023/06/21 13:07:20;;;;;;;16.85;4.20;;;;;;;;;;5040653;28;20307;-72
2023/06/21 13:09:45;;;;;;;15.35;4.07;;;;;;;;;;5042291;28;20131;-70
2023/06/21 13:12:11;;;;;;;18.85;3.85;;;;;;;;;;5023842;28;20141;-74
2023/06/21 13:14:36;;;;;;;17.90;3.65;;;;;;;;;;5042524;28;20128;-69
2023/06/21 13:17:02;;;;;;;17.17;3.83;;;;;;;;;;5039995;28;20069;-72
2023/06/21 13:19:27;;;;;;;16.52;3.90;;;;;;;;;;5035304;28;20410;-70
2023/06/21 13:21:53;;;;;;;18.65;4.47;;;;;;;;;;5023894;28;20076;-70
2023/06/21 13:24:18;;;;;;;15.50;4.60;;;;;;;;;;5039832;28;20041;-69
2023/06/21 13:26:44;;;;;;;14.63;4.10;;;;;;;;;;5023480;28;20041;-70
2023/06/21 13:29:09;;;;;;;17.05;4.03;;;;;;;;;;5020518;28;20049;-72
2023/06/21 13:31:35;;;;;;;15.95;3.67;;;;;;;;;;5023074;28;20102;-69
2023/06/21 13:34:00;;;;;;;19.75;4.13;;;;;;;;;;5023556;28;20049;-70
2023/06/21 13:36:26;;;;;;;26.15;4.47;;;;;;;;;;5023055;28;20406;-70
2023/06/21 13:38:51;;;;;;;12.63;3.25;;;;;;;;;;5022923;28;20077;-73
2023/06/21 13:41:17;;;;;;;20.17;3.88;;;;;;;;;;5023452;28;20271;-71
2023/06/21 13:43:44;;;;;;;18.02;3.92;;;;;;;;;;5023498;28;20045;-72
2023/06/21 13:46:09;;;;;;;16.73;3.20;;;;;;;;;;5023036;28;20041;-71
2023/06/21 13:48:35;;;;;;;13.23;3.67;;;;;;;;;;5024127;28;20053;-69
2023/06/21 13:51:00;;;;;;;13.15;3.33;;;;;;;;;;5025518;28;20037;-71
2023/06/21 13:53:27;;;;;;;15.68;3.97;;;;;;;;;;5020740;28;20418;-69
2023/06/21 13:55:52;;;;;;;17.88;3.92;;;;;;;;;;5019614;28;20103;-74
2023/06/21 13:58:18;;;;;;;14.52;3.47;;;;;;;;;;5021862;28;20053;-70
2023/06/21 14:00:44;;;;;;;13.40;3.65;;;;;;;;;;5021230;28;20042;-70
2023/06/21 14:03:09;;;;;;;17.63;4.20;;;;;;;;;;5020589;28;20506;-70
2023/06/21 14:05:35;;;;;;;17.73;3.60;;;;;;;;;;5019898;28;20049;-71
2023/06/21 14:08:00;;;;;;;14.75;3.67;;;;;;;;;;5019155;28;20090;-69
2023/06/21 14:10:26;;;;;;;11.07;2.92;;;;;;;;;;5021261;28;20079;-69
2023/06/21 14:12:51;;;;;;;15.45;3.35;;;;;;;;;;5019787;28;20056;-70
2023/06/21 14:15:17;;;;;;;12.73;3.42;;;;;;;;;;5019919;28;20520;-70
2023/06/21 14:17:42;;;;;;;11.32;3.25;;;;;;;;;;5020953;28;20041;-72
2023/06/21 14:20:09;;;;;;;15.73;4.03;;;;;;;;;;5020672;28;20466;-72
2023/06/21 14:22:36;;;;;;;11.23;2.95;;;;;;;;;;5022569;28;20037;-70
2023/06/21 14:25:03;;;;;;;9.32;3.28;;;;;;;;;;5020706;28;20486;-72
2023/06/21 14:27:29;;;;;;;16.98;4.00;;;;;;;;;;5021983;28;20053;-70
2023/06/21 14:29:55;;;;;;;13.77;2.95;;;;;;;;;;5021135;28;20125;-72
2023/06/21 14:32:23;;;;;;;14.50;3.25;;;;;;;;;;5019730;28;20067;-73